sensor_id;sensor_type;location;lat;lon;timestamp;P1;durP1;ratioP1;P2;durP2;ratioP2
25091;SDS011;13082;52.374;4.946;2023-10-08T00:00:26;14.70;;;5.45;;
25091;SDS011;13082;52.374;4.946;2023-10-08T00:03:11;10.70;;;5.43;;
25091;SDS011;13082;52.374;4.946;2023-10-08T00:05:38;10.70;;;4.80;;
25091;SDS011;13082;52.374;4.946;2023-10-08T00:08:05;14.95;;;5.13;;
25091;SDS011;13082;52.374;4.946;2023-10-08T00:10:38;12.95;;;5.30;;
25091;SDS011;13082;52.374;4.946;2023-10-08T00:13:08;16.08;;;5.07;;
25091;SDS011;13082;52.374;4.946;2023-10-08T00:15:38;10.07;;;4.68;;
25091;SDS011;13082;52.374;4.946;2023-10-08T00:18:15;13.80;;;5.60;;
25091;SDS011;13082;52.374;4.946;2023-10-08T00:20:42;12.70;;;4.70;;
25091;SDS011;13082;52.374;4.946;2023-10-08T00:23:12;13.20;;;4.88;;
25091;SDS011;13082;52.374;4.946;2023-10-08T00:25:42;10.40;;;5.28;;
25091;SDS011;13082;52.374;4.946;2023-10-08T00:28:12;12.77;;;5.30;;
25091;SDS011;13082;52.374;4.946;2023-10-08T00:30:41;8.98;;;4.45;;
25091;SDS011;13082;52.374;4.946;2023-10-08T00:33:07;12.40;;;5.43;;
25091;SDS011;13082;52.374;4.946;2023-10-08T00:35:40;12.27;;;4.38;;
25091;SDS011;13082;52.374;4.946;2023-10-08T00:38:09;12.40;;;4.60;;
25091;SDS011;13082;52.374;4.946;2023-10-08T00:40:42;8.05;;;4.80;;
25091;SDS011;13082;52.374;4.946;2023-10-08T00:43:32;7.75;;;4.82;;
25091;SDS011;13082;52.374;4.946;2023-10-08T00:46:01;9.77;;;5.05;;
25091;SDS011;13082;52.374;4.946;2023-10-08T00:48:42;13.50;;;5.38;;
25091;SDS011;13082;52.374;4.946;2023-10-08T00:51:09;9.63;;;4.53;;
25091;SDS011;13082;52.374;4.946;2023-10-08T00:53:48;12.35;;;5.65;;
25091;SDS011;13082;52.374;4.946;2023-10-08T00:56:24;11.98;;;5.47;;
25091;SDS011;13082;52.374;4.946;2023-10-08T00:59:11;13.60;;;5.15;;
25091;SDS011;13082;52.374;4.946;2023-10-08T01:01:40;11.10;;;4.75;;
25091;SDS011;13082;52.374;4.946;2023-10-08T01:04:25;13.30;;;5.47;;
25091;SDS011;13082;52.374;4.946;2023-10-08T01:06:55;18.65;;;6.07;;
25091;SDS011;13082;52.374;4.946;2023-10-08T01:09:26;12.90;;;5.15;;
25091;SDS011;13082;52.374;4.946;2023-10-08T01:12:15;11.90;;;5.75;;
25091;SDS011;13082;52.374;4.946;2023-10-08T01:14:53;7.78;;;4.43;;
25091;SDS011;13082;52.374;4.946;2023-10-08T01:17:20;9.25;;;5.28;;
25091;SDS011;13082;52.374;4.946;2023-10-08T01:19:57;14.85;;;5.20;;
25091;SDS011;13082;52.374;4.946;2023-10-08T01:22:33;12.50;;;5.43;;
25091;SDS011;13082;52.374;4.946;2023-10-08T01:24:59;18.55;;;5.68;;
25091;SDS011;13082;52.374;4.946;2023-10-08T01:27:29;13.30;;;4.50;;
25091;SDS011;13082;52.374;4.946;2023-10-08T01:29:59;11.20;;;5.32;;
25091;SDS011;13082;52.374;4.946;2023-10-08T01:32:35;9.73;;;4.93;;
25091;SDS011;13082;52.374;4.946;2023-10-08T01:35:01;13.95;;;5.40;;
25091;SDS011;13082;52.374;4.946;2023-10-08T01:37:30;9.68;;;5.13;;
25091;SDS011;13082;52.374;4.946;2023-10-08T01:39:59;13.85;;;6.32;;
25091;SDS011;13082;52.374;4.946;2023-10-08T01:42:28;15.32;;;6.25;;
25091;SDS011;13082;52.374;4.946;2023-10-08T01:44:57;12.63;;;5.22;;
25091;SDS011;13082;52.374;4.946;2023-10-08T01:47:23;18.10;;;6.03;;
25091;SDS011;13082;52.374;4.946;2023-10-08T01:49:50;16.23;;;5.28;;
25091;SDS011;13082;52.374;4.946;2023-10-08T01:52:23;12.10;;;5.45;;
25091;SDS011;13082;52.374;4.946;2023-10-08T01:54:49;10.35;;;4.72;;
25091;SDS011;13082;52.374;4.946;2023-10-08T01:57:15;10.45;;;4.68;;
25091;SDS011;13082;52.374;4.946;2023-10-08T01:59:42;11.93;;;6.20;;
25091;SDS011;13082;52.374;4.946;2023-10-08T02:02:09;15.80;;;5.95;;
25091;SDS011;13082;52.374;4.946;2023-10-08T02:04:35;13.93;;;6.40;;
25091;SDS011;13082;52.374;4.946;2023-10-08T02:07:04;15.93;;;5.60;;
25091;SDS011;13082;52.374;4.946;2023-10-08T02:09:33;12.32;;;5.47;;
25091;SDS011;13082;52.374;4.946;2023-10-08T02:11:59;15.73;;;5.55;;
25091;SDS011;13082;52.374;4.946;2023-10-08T02:14:25;17.20;;;6.32;;
25091;SDS011;13082;52.374;4.946;2023-10-08T02:16:51;13.43;;;5.32;;
25091;SDS011;13082;52.374;4.946;2023-10-08T02:19:21;8.93;;;5.20;;
25091;SDS011;13082;52.374;4.946;2023-10-08T02:21:52;16.67;;;5.95;;
25091;SDS011;13082;52.374;4.946;2023-10-08T02:24:22;10.00;;;4.88;;
25091;SDS011;13082;52.374;4.946;2023-10-08T02:26:52;9.65;;;4.95;;
25091;SDS011;13082;52.374;4.946;2023-10-08T02:29:20;17.70;;;6.60;;
25091;SDS011;13082;52.374;4.946;2023-10-08T02:31:48;12.10;;;5.05;;
25091;SDS011;13082;52.374;4.946;2023-10-08T02:34:13;10.60;;;5.05;;
25091;SDS011;13082;52.374;4.946;2023-10-08T02:36:39;10.40;;;5.60;;
25091;SDS011;13082;52.374;4.946;2023-10-08T02:39:06;13.27;;;6.80;;
25091;SDS011;13082;52.374;4.946;2023-10-08T02:41:42;12.60;;;4.07;;
25091;SDS011;13082;52.374;4.946;2023-10-08T02:44:11;6.65;;;2.88;;
25091;SDS011;13082;52.374;4.946;2023-10-08T02:46:41;5.88;;;2.88;;
25091;SDS011;13082;52.374;4.946;2023-10-08T02:49:08;16.17;;;2.47;;
25091;SDS011;13082;52.374;4.946;2023-10-08T02:51:38;5.28;;;2.00;;
25091;SDS011;13082;52.374;4.946;2023-10-08T02:54:06;12.32;;;2.08;;
25091;SDS011;13082;52.374;4.946;2023-10-08T02:56:42;3.50;;;2.10;;
25091;SDS011;13082;52.374;4.946;2023-10-08T02:59:09;6.50;;;1.77;;
25091;SDS011;13082;52.374;4.946;2023-10-08T03:01:37;10.25;;;2.22;;
25091;SDS011;13082;52.374;4.946;2023-10-08T03:04:05;5.45;;;2.47;;
25091;SDS011;13082;52.374;4.946;2023-10-08T03:06:39;8.27;;;2.80;;
25091;SDS011;13082;52.374;4.946;2023-10-08T03:09:06;5.70;;;2.30;;
25091;SDS011;13082;52.374;4.946;2023-10-08T03:11:32;10.60;;;2.40;;
25091;SDS011;13082;52.374;4.946;2023-10-08T03:14:00;8.53;;;2.10;;
25091;SDS011;13082;52.374;4.946;2023-10-08T03:16:26;3.87;;;1.83;;
25091;SDS011;13082;52.374;4.946;2023-10-08T03:19:00;7.13;;;2.00;;
25091;SDS011;13082;52.374;4.946;2023-10-08T03:21:26;4.17;;;1.53;;
25091;SDS011;13082;52.374;4.946;2023-10-08T03:24:04;2.30;;;1.50;;
25091;SDS011;13082;52.374;4.946;2023-10-08T03:26:42;3.27;;;1.30;;
25091;SDS011;13082;52.374;4.946;2023-10-08T03:29:10;1.80;;;1.50;;
25091;SDS011;13082;52.374;4.946;2023-10-08T03:31:43;3.03;;;1.30;;
25091;SDS011;13082;52.374;4.946;2023-10-08T03:34:11;4.57;;;1.30;;
25091;SDS011;13082;52.374;4.946;2023-10-08T03:36:38;3.83;;;1.27;;
25091;SDS011;13082;52.374;4.946;2023-10-08T03:39:18;3.93;;;1.00;;
25091;SDS011;13082;52.374;4.946;2023-10-08T03:41:44;3.10;;;1.37;;
25091;SDS011;13082;52.374;4.946;2023-10-08T03:44:23;6.03;;;1.20;;
25091;SDS011;13082;52.374;4.946;2023-10-08T03:46:49;0.80;;;0.80;;
25091;SDS011;13082;52.374;4.946;2023-10-08T03:49:17;2.10;;;1.70;;
25091;SDS011;13082;52.374;4.946;2023-10-08T03:51:46;1.67;;;1.20;;
25091;SDS011;13082;52.374;4.946;2023-10-08T03:54:13;2.53;;;1.10;;
25091;SDS011;13082;52.374;4.946;2023-10-08T03:56:43;2.40;;;1.30;;
25091;SDS011;13082;52.374;4.946;2023-10-08T03:59:16;9.03;;;1.47;;
25091;SDS011;13082;52.374;4.946;2023-10-08T04:02:00;4.93;;;1.40;;
25091;SDS011;13082;52.374;4.946;2023-10-08T04:04:43;3.13;;;1.93;;
25091;SDS011;13082;52.374;4.946;2023-10-08T04:07:25;2.87;;;1.87;;
25091;SDS011;13082;52.374;4.946;2023-10-08T04:10:04;3.83;;;1.80;;
25091;SDS011;13082;52.374;4.946;2023-10-08T04:12:33;3.67;;;2.47;;
25091;SDS011;13082;52.374;4.946;2023-10-08T04:15:03;3.00;;;2.43;;
25091;SDS011;13082;52.374;4.946;2023-10-08T04:17:32;4.80;;;3.10;;
25091;SDS011;13082;52.374;4.946;2023-10-08T04:20:08;7.70;;;2.90;;
25091;SDS011;13082;52.374;4.946;2023-10-08T04:23:05;7.40;;;2.80;;
25091;SDS011;13082;52.374;4.946;2023-10-08T04:25:38;4.10;;;2.63;;
25091;SDS011;13082;52.374;4.946;2023-10-08T04:28:06;6.83;;;3.00;;
25091;SDS011;13082;52.374;4.946;2023-10-08T04:30:38;3.23;;;2.80;;
25091;SDS011;13082;52.374;4.946;2023-10-08T04:33:06;7.83;;;3.17;;
25091;SDS011;13082;52.374;4.946;2023-10-08T04:35:36;6.70;;;3.10;;
25091;SDS011;13082;52.374;4.946;2023-10-08T04:38:13;3.67;;;2.40;;
25091;SDS011;13082;52.374;4.946;2023-10-08T04:40:42;4.27;;;2.67;;
25091;SDS011;13082;52.374;4.946;2023-10-08T04:43:13;4.93;;;2.50;;
25091;SDS011;13082;52.374;4.946;2023-10-08T04:45:56;6.27;;;2.50;;
25091;SDS011;13082;52.374;4.946;2023-10-08T04:48:22;2.30;;;2.10;;
25091;SDS011;13082;52.374;4.946;2023-10-08T04:50:57;4.47;;;2.13;;
25091;SDS011;13082;52.374;4.946;2023-10-08T04:53:33;5.23;;;2.60;;
25091;SDS011;13082;52.374;4.946;2023-10-08T04:56:06;4.83;;;2.07;;
25091;SDS011;13082;52.374;4.946;2023-10-08T04:58:42;3.30;;;1.70;;
25091;SDS011;13082;52.374;4.946;2023-10-08T05:01:15;2.63;;;2.37;;
25091;SDS011;13082;52.374;4.946;2023-10-08T05:03:45;3.57;;;2.07;;
25091;SDS011;13082;52.374;4.946;2023-10-08T05:06:32;4.47;;;1.80;;
25091;SDS011;13082;52.374;4.946;2023-10-08T05:08:59;2.80;;;2.00;;
25091;SDS011;13082;52.374;4.946;2023-10-08T05:11:35;3.63;;;1.90;;
25091;SDS011;13082;52.374;4.946;2023-10-08T05:14:10;3.63;;;2.00;;
25091;SDS011;13082;52.374;4.946;2023-10-08T05:16:41;6.63;;;1.87;;
25091;SDS011;13082;52.374;4.946;2023-10-08T05:19:25;1.47;;;1.20;;
25091;SDS011;13082;52.374;4.946;2023-10-08T05:22:10;2.60;;;1.43;;
25091;SDS011;13082;52.374;4.946;2023-10-08T05:25:08;2.87;;;1.17;;
25091;SDS011;13082;52.374;4.946;2023-10-08T05:27:41;2.30;;;1.60;;
25091;SDS011;13082;52.374;4.946;2023-10-08T05:30:18;1.67;;;1.37;;
25091;SDS011;13082;52.374;4.946;2023-10-08T05:33:07;3.93;;;1.23;;
25091;SDS011;13082;52.374;4.946;2023-10-08T05:35:43;2.60;;;1.37;;
25091;SDS011;13082;52.374;4.946;2023-10-08T05:38:11;4.83;;;1.67;;
25091;SDS011;13082;52.374;4.946;2023-10-08T05:40:47;4.17;;;1.70;;
25091;SDS011;13082;52.374;4.946;2023-10-08T05:43:21;3.80;;;1.93;;
25091;SDS011;13082;52.374;4.946;2023-10-08T05:46:06;2.17;;;1.93;;
25091;SDS011;13082;52.374;4.946;2023-10-08T05:48:48;2.00;;;1.77;;
25091;SDS011;13082;52.374;4.946;2023-10-08T05:51:27;4.93;;;2.37;;
25091;SDS011;13082;52.374;4.946;2023-10-08T05:54:20;3.83;;;2.13;;
25091;SDS011;13082;52.374;4.946;2023-10-08T05:59:49;8.07;;;1.90;;
25091;SDS011;13082;52.374;4.946;2023-10-08T06:02:21;3.60;;;1.57;;
25091;SDS011;13082;52.374;4.946;2023-10-08T06:04:58;5.17;;;1.60;;
25091;SDS011;13082;52.374;4.946;2023-10-08T06:07:50;4.13;;;1.30;;
25091;SDS011;13082;52.374;4.946;2023-10-08T06:10:22;1.57;;;1.20;;
25091;SDS011;13082;52.374;4.946;2023-10-08T06:12:55;1.77;;;1.10;;
25091;SDS011;13082;52.374;4.946;2023-10-08T06:15:51;1.20;;;1.10;;
25091;SDS011;13082;52.374;4.946;2023-10-08T06:18:16;4.20;;;1.10;;
25091;SDS011;13082;52.374;4.946;2023-10-08T06:20:50;0.90;;;0.90;;
25091;SDS011;13082;52.374;4.946;2023-10-08T06:23:19;0.93;;;0.93;;
25091;SDS011;13082;52.374;4.946;2023-10-08T06:25:48;2.73;;;0.80;;
25091;SDS011;13082;52.374;4.946;2023-10-08T06:28:36;2.60;;;1.20;;
25091;SDS011;13082;52.374;4.946;2023-10-08T06:31:06;1.37;;;0.80;;
25091;SDS011;13082;52.374;4.946;2023-10-08T06:33:36;1.17;;;0.80;;
25091;SDS011;13082;52.374;4.946;2023-10-08T06:36:03;1.50;;;1.00;;
25091;SDS011;13082;52.374;4.946;2023-10-08T06:38:39;3.10;;;1.13;;
25091;SDS011;13082;52.374;4.946;2023-10-08T06:41:06;4.20;;;1.10;;
25091;SDS011;13082;52.374;4.946;2023-10-08T06:43:39;1.13;;;1.00;;
25091;SDS011;13082;52.374;4.946;2023-10-08T06:46:11;2.53;;;1.10;;
25091;SDS011;13082;52.374;4.946;2023-10-08T06:48:37;2.80;;;1.30;;
25091;SDS011;13082;52.374;4.946;2023-10-08T06:51:07;1.20;;;1.10;;
25091;SDS011;13082;52.374;4.946;2023-10-08T06:53:47;0.97;;;0.87;;
25091;SDS011;13082;52.374;4.946;2023-10-08T06:56:16;1.53;;;1.00;;
25091;SDS011;13082;52.374;4.946;2023-10-08T06:58:45;1.03;;;0.97;;
25091;SDS011;13082;52.374;4.946;2023-10-08T07:01:17;1.90;;;1.00;;
25091;SDS011;13082;52.374;4.946;2023-10-08T07:04:03;0.80;;;0.80;;
25091;SDS011;13082;52.374;4.946;2023-10-08T07:06:31;3.60;;;1.00;;
25091;SDS011;13082;52.374;4.946;2023-10-08T07:08:59;0.93;;;0.80;;
25091;SDS011;13082;52.374;4.946;2023-10-08T07:11:29;1.53;;;1.00;;
25091;SDS011;13082;52.374;4.946;2023-10-08T07:14:00;1.17;;;1.00;;
25091;SDS011;13082;52.374;4.946;2023-10-08T07:16:35;2.00;;;1.30;;
25091;SDS011;13082;52.374;4.946;2023-10-08T07:19:01;1.27;;;0.80;;
25091;SDS011;13082;52.374;4.946;2023-10-08T07:21:40;1.70;;;0.80;;
25091;SDS011;13082;52.374;4.946;2023-10-08T07:24:12;1.80;;;0.93;;
25091;SDS011;13082;52.374;4.946;2023-10-08T07:26:46;1.27;;;0.90;;
25091;SDS011;13082;52.374;4.946;2023-10-08T07:29:13;2.33;;;0.90;;
25091;SDS011;13082;52.374;4.946;2023-10-08T07:31:42;1.10;;;1.00;;
25091;SDS011;13082;52.374;4.946;2023-10-08T07:34:14;2.47;;;1.00;;
25091;SDS011;13082;52.374;4.946;2023-10-08T07:36:45;1.13;;;1.00;;
25091;SDS011;13082;52.374;4.946;2023-10-08T07:39:12;4.20;;;0.87;;
25091;SDS011;13082;52.374;4.946;2023-10-08T07:41:57;0.50;;;0.50;;
25091;SDS011;13082;52.374;4.946;2023-10-08T07:44:24;0.77;;;0.77;;
25091;SDS011;13082;52.374;4.946;2023-10-08T07:46:53;2.00;;;0.87;;
25091;SDS011;13082;52.374;4.946;2023-10-08T07:49:23;2.27;;;1.00;;
25091;SDS011;13082;52.374;4.946;2023-10-08T07:51:50;0.73;;;0.73;;
25091;SDS011;13082;52.374;4.946;2023-10-08T07:54:17;2.70;;;1.33;;
25091;SDS011;13082;52.374;4.946;2023-10-08T07:56:48;2.47;;;1.03;;
25091;SDS011;13082;52.374;4.946;2023-10-08T07:59:14;2.30;;;1.03;;
25091;SDS011;13082;52.374;4.946;2023-10-08T08:01:41;0.90;;;0.90;;
25091;SDS011;13082;52.374;4.946;2023-10-08T08:04:11;2.20;;;1.17;;
25091;SDS011;13082;52.374;4.946;2023-10-08T08:06:50;2.20;;;1.10;;
25091;SDS011;13082;52.374;4.946;2023-10-08T08:09:17;1.63;;;1.20;;
25091;SDS011;13082;52.374;4.946;2023-10-08T08:11:48;3.10;;;0.93;;
25091;SDS011;13082;52.374;4.946;2023-10-08T08:14:14;2.90;;;1.10;;
25091;SDS011;13082;52.374;4.946;2023-10-08T08:16:42;2.70;;;1.50;;
25091;SDS011;13082;52.374;4.946;2023-10-08T08:19:14;3.90;;;1.13;;
25091;SDS011;13082;52.374;4.946;2023-10-08T08:21:49;1.00;;;0.97;;
25091;SDS011;13082;52.374;4.946;2023-10-08T08:24:17;1.40;;;1.00;;
25091;SDS011;13082;52.374;4.946;2023-10-08T08:26:54;2.50;;;1.43;;
25091;SDS011;13082;52.374;4.946;2023-10-08T08:29:27;1.67;;;1.23;;
25091;SDS011;13082;52.374;4.946;2023-10-08T08:31:54;2.27;;;0.93;;
25091;SDS011;13082;52.374;4.946;2023-10-08T08:34:22;2.03;;;1.27;;
25091;SDS011;13082;52.374;4.946;2023-10-08T08:36:49;1.57;;;1.30;;
25091;SDS011;13082;52.374;4.946;2023-10-08T08:39:15;1.20;;;1.00;;
25091;SDS011;13082;52.374;4.946;2023-10-08T08:42:01;4.10;;;1.00;;
25091;SDS011;13082;52.374;4.946;2023-10-08T08:44:29;1.70;;;1.10;;
25091;SDS011;13082;52.374;4.946;2023-10-08T08:47:00;1.87;;;1.10;;
25091;SDS011;13082;52.374;4.946;2023-10-08T08:49:29;1.00;;;0.80;;
25091;SDS011;13082;52.374;4.946;2023-10-08T08:51:59;2.10;;;1.10;;
25091;SDS011;13082;52.374;4.946;2023-10-08T08:54:26;4.00;;;1.00;;
25091;SDS011;13082;52.374;4.946;2023-10-08T08:56:55;1.10;;;1.00;;
25091;SDS011;13082;52.374;4.946;2023-10-08T08:59:31;1.47;;;0.90;;
25091;SDS011;13082;52.374;4.946;2023-10-08T09:02:01;3.10;;;1.07;;
25091;SDS011;13082;52.374;4.946;2023-10-08T09:04:32;2.73;;;1.00;;
25091;SDS011;13082;52.374;4.946;2023-10-08T09:07:00;2.17;;;0.70;;
25091;SDS011;13082;52.374;4.946;2023-10-08T09:09:33;1.00;;;0.90;;
25091;SDS011;13082;52.374;4.946;2023-10-08T09:12:02;0.97;;;0.90;;
25091;SDS011;13082;52.374;4.946;2023-10-08T09:14:30;1.63;;;0.87;;
25091;SDS011;13082;52.374;4.946;2023-10-08T09:16:59;0.80;;;0.80;;
25091;SDS011;13082;52.374;4.946;2023-10-08T09:19:40;3.27;;;0.90;;
25091;SDS011;13082;52.374;4.946;2023-10-08T09:22:06;0.80;;;0.80;;
25091;SDS011;13082;52.374;4.946;2023-10-08T09:24:34;1.90;;;1.00;;
25091;SDS011;13082;52.374;4.946;2023-10-08T09:27:13;1.00;;;0.90;;
25091;SDS011;13082;52.374;4.946;2023-10-08T09:29:43;2.17;;;0.90;;
25091;SDS011;13082;52.374;4.946;2023-10-08T09:32:14;1.10;;;1.00;;
25091;SDS011;13082;52.374;4.946;2023-10-08T09:34:48;0.70;;;0.70;;
25091;SDS011;13082;52.374;4.946;2023-10-08T09:37:15;1.40;;;0.97;;
25091;SDS011;13082;52.374;4.946;2023-10-08T09:39:42;2.03;;;0.80;;
25091;SDS011;13082;52.374;4.946;2023-10-08T09:42:11;2.43;;;1.00;;
25091;SDS011;13082;52.374;4.946;2023-10-08T09:44:39;1.63;;;1.00;;
25091;SDS011;13082;52.374;4.946;2023-10-08T09:49:49;2.33;;;0.90;;
25091;SDS011;13082;52.374;4.946;2023-10-08T09:55:45;1.13;;;0.90;;
25091;SDS011;13082;52.374;4.946;2023-10-08T09:58:21;1.63;;;0.90;;
25091;SDS011;13082;52.374;4.946;2023-10-08T10:00:49;1.40;;;1.13;;
25091;SDS011;13082;52.374;4.946;2023-10-08T10:03:21;2.40;;;0.80;;
25091;SDS011;13082;52.374;4.946;2023-10-08T10:05:48;1.00;;;1.00;;
25091;SDS011;13082;52.374;4.946;2023-10-08T10:08:15;1.10;;;0.80;;
25091;SDS011;13082;52.374;4.946;2023-10-08T10:10:41;2.53;;;1.03;;
25091;SDS011;13082;52.374;4.946;2023-10-08T10:13:12;1.50;;;0.83;;
25091;SDS011;13082;52.374;4.946;2023-10-08T10:15:41;2.03;;;1.10;;
25091;SDS011;13082;52.374;4.946;2023-10-08T10:20:40;1.93;;;1.10;;
25091;SDS011;13082;52.374;4.946;2023-10-08T10:26:29;2.80;;;1.27;;
25091;SDS011;13082;52.374;4.946;2023-10-08T10:31:34;1.43;;;1.10;;
25091;SDS011;13082;52.374;4.946;2023-10-08T10:34:07;2.67;;;1.07;;
25091;SDS011;13082;52.374;4.946;2023-10-08T10:36:36;2.10;;;1.17;;
25091;SDS011;13082;52.374;4.946;2023-10-08T10:39:04;3.13;;;1.20;;
25091;SDS011;13082;52.374;4.946;2023-10-08T10:41:51;3.70;;;1.40;;
25091;SDS011;13082;52.374;4.946;2023-10-08T10:44:27;2.33;;;1.10;;
25091;SDS011;13082;52.374;4.946;2023-10-08T10:46:54;1.17;;;0.90;;
25091;SDS011;13082;52.374;4.946;2023-10-08T10:49:40;5.00;;;1.80;;
25091;SDS011;13082;52.374;4.946;2023-10-08T10:52:25;3.93;;;1.30;;
25091;SDS011;13082;52.374;4.946;2023-10-08T10:57:43;2.13;;;1.30;;
25091;SDS011;13082;52.374;4.946;2023-10-08T11:00:19;4.27;;;1.03;;
25091;SDS011;13082;52.374;4.946;2023-10-08T11:03:01;2.87;;;1.20;;
25091;SDS011;13082;52.374;4.946;2023-10-08T11:05:32;1.80;;;1.30;;
25091;SDS011;13082;52.374;4.946;2023-10-08T11:08:02;2.33;;;1.10;;
25091;SDS011;13082;52.374;4.946;2023-10-08T11:10:30;1.40;;;1.07;;
25091;SDS011;13082;52.374;4.946;2023-10-08T11:12:57;2.30;;;1.07;;
25091;SDS011;13082;52.374;4.946;2023-10-08T11:15:39;4.57;;;1.17;;
25091;SDS011;13082;52.374;4.946;2023-10-08T11:18:13;2.60;;;1.80;;
25091;SDS011;13082;52.374;4.946;2023-10-08T11:20:49;1.13;;;1.03;;
25091;SDS011;13082;52.374;4.946;2023-10-08T11:23:41;4.93;;;1.40;;
25091;SDS011;13082;52.374;4.946;2023-10-08T11:26:37;3.37;;;1.17;;
25091;SDS011;13082;52.374;4.946;2023-10-08T11:29:19;3.57;;;1.40;;
25091;SDS011;13082;52.374;4.946;2023-10-08T11:31:50;2.07;;;1.30;;
25091;SDS011;13082;52.374;4.946;2023-10-08T11:34:16;2.63;;;1.20;;
25091;SDS011;13082;52.374;4.946;2023-10-08T11:36:52;1.60;;;1.23;;
25091;SDS011;13082;52.374;4.946;2023-10-08T11:39:18;1.73;;;1.23;;
25091;SDS011;13082;52.374;4.946;2023-10-08T11:41:59;7.30;;;1.53;;
25091;SDS011;13082;52.374;4.946;2023-10-08T11:44:41;3.70;;;1.73;;
25091;SDS011;13082;52.374;4.946;2023-10-08T11:47:08;1.53;;;1.17;;
25091;SDS011;13082;52.374;4.946;2023-10-08T11:49:37;9.43;;;1.40;;
25091;SDS011;13082;52.374;4.946;2023-10-08T11:52:11;4.30;;;1.27;;
25091;SDS011;13082;52.374;4.946;2023-10-08T11:54:40;2.80;;;1.60;;
25091;SDS011;13082;52.374;4.946;2023-10-08T11:57:07;2.87;;;1.20;;
25091;SDS011;13082;52.374;4.946;2023-10-08T11:59:34;2.30;;;1.20;;
25091;SDS011;13082;52.374;4.946;2023-10-08T12:02:04;3.78;;;1.60;;
25091;SDS011;13082;52.374;4.946;2023-10-08T12:04:33;1.83;;;1.40;;
25091;SDS011;13082;52.374;4.946;2023-10-08T12:07:01;1.83;;;1.30;;
25091;SDS011;13082;52.374;4.946;2023-10-08T12:09:32;3.77;;;1.60;;
25091;SDS011;13082;52.374;4.946;2023-10-08T12:12:02;2.73;;;1.20;;
25091;SDS011;13082;52.374;4.946;2023-10-08T12:14:34;3.30;;;1.33;;
25091;SDS011;13082;52.374;4.946;2023-10-08T12:17:03;1.30;;;1.20;;
25091;SDS011;13082;52.374;4.946;2023-10-08T12:19:36;2.93;;;1.47;;
25091;SDS011;13082;52.374;4.946;2023-10-08T12:22:05;5.27;;;1.80;;
25091;SDS011;13082;52.374;4.946;2023-10-08T12:24:32;2.33;;;2.13;;
25091;SDS011;13082;52.374;4.946;2023-10-08T12:26:58;2.78;;;1.90;;
25091;SDS011;13082;52.374;4.946;2023-10-08T12:29:24;2.70;;;1.90;;
25091;SDS011;13082;52.374;4.946;2023-10-08T12:31:51;1.70;;;1.50;;
25091;SDS011;13082;52.374;4.946;2023-10-08T12:34:18;3.63;;;1.77;;
25091;SDS011;13082;52.374;4.946;2023-10-08T12:36:44;1.57;;;1.40;;
25091;SDS011;13082;52.374;4.946;2023-10-08T12:39:13;1.80;;;1.70;;
25091;SDS011;13082;52.374;4.946;2023-10-08T12:41:42;3.07;;;1.80;;
25091;SDS011;13082;52.374;4.946;2023-10-08T12:44:09;4.20;;;1.63;;
25091;SDS011;13082;52.374;4.946;2023-10-08T12:46:35;1.67;;;1.33;;
25091;SDS011;13082;52.374;4.946;2023-10-08T12:49:01;2.27;;;1.40;;
25091;SDS011;13082;52.374;4.946;2023-10-08T12:51:27;2.00;;;1.60;;
25091;SDS011;13082;52.374;4.946;2023-10-08T12:53:57;3.27;;;1.73;;
25091;SDS011;13082;52.374;4.946;2023-10-08T12:56:31;3.00;;;2.03;;
25091;SDS011;13082;52.374;4.946;2023-10-08T12:58:59;3.83;;;2.20;;
25091;SDS011;13082;52.374;4.946;2023-10-08T13:01:29;2.57;;;1.80;;
25091;SDS011;13082;52.374;4.946;2023-10-08T13:03:55;2.37;;;1.60;;
25091;SDS011;13082;52.374;4.946;2023-10-08T13:06:32;2.47;;;1.93;;
25091;SDS011;13082;52.374;4.946;2023-10-08T13:09:02;2.07;;;1.87;;
25091;SDS011;13082;52.374;4.946;2023-10-08T13:11:34;1.90;;;1.80;;
25091;SDS011;13082;52.374;4.946;2023-10-08T13:14:03;3.23;;;1.73;;
25091;SDS011;13082;52.374;4.946;2023-10-08T13:16:29;3.43;;;2.57;;
25091;SDS011;13082;52.374;4.946;2023-10-08T13:18:56;2.43;;;1.83;;
25091;SDS011;13082;52.374;4.946;2023-10-08T13:21:26;5.17;;;2.30;;
25091;SDS011;13082;52.374;4.946;2023-10-08T13:23:53;4.40;;;2.70;;
25091;SDS011;13082;52.374;4.946;2023-10-08T13:26:22;4.63;;;2.80;;
25091;SDS011;13082;52.374;4.946;2023-10-08T13:28:49;5.33;;;2.43;;
25091;SDS011;13082;52.374;4.946;2023-10-08T13:31:16;2.83;;;2.10;;
25091;SDS011;13082;52.374;4.946;2023-10-08T13:33:42;4.27;;;2.40;;
25091;SDS011;13082;52.374;4.946;2023-10-08T13:36:10;3.73;;;2.70;;
25091;SDS011;13082;52.374;4.946;2023-10-08T13:38:38;6.37;;;2.73;;
25091;SDS011;13082;52.374;4.946;2023-10-08T13:41:05;2.93;;;2.63;;
25091;SDS011;13082;52.374;4.946;2023-10-08T13:43:39;3.33;;;2.53;;
25091;SDS011;13082;52.374;4.946;2023-10-08T13:46:16;4.43;;;2.40;;
25091;SDS011;13082;52.374;4.946;2023-10-08T13:48:43;3.40;;;2.63;;
25091;SDS011;13082;52.374;4.946;2023-10-08T13:51:13;5.43;;;3.03;;
25091;SDS011;13082;52.374;4.946;2023-10-08T13:53:41;4.10;;;2.63;;
25091;SDS011;13082;52.374;4.946;2023-10-08T13:56:10;3.63;;;3.10;;
25091;SDS011;13082;52.374;4.946;2023-10-08T13:58:37;4.70;;;2.93;;
25091;SDS011;13082;52.374;4.946;2023-10-08T14:01:06;4.67;;;3.37;;
25091;SDS011;13082;52.374;4.946;2023-10-08T14:03:50;6.30;;;3.73;;
25091;SDS011;13082;52.374;4.946;2023-10-08T14:06:21;3.53;;;3.13;;
25091;SDS011;13082;52.374;4.946;2023-10-08T14:08:47;4.00;;;3.00;;
25091;SDS011;13082;52.374;4.946;2023-10-08T14:11:23;4.83;;;3.17;;
25091;SDS011;13082;52.374;4.946;2023-10-08T14:13:49;3.03;;;2.53;;
25091;SDS011;13082;52.374;4.946;2023-10-08T14:16:21;4.43;;;3.17;;
25091;SDS011;13082;52.374;4.946;2023-10-08T14:18:53;5.33;;;3.23;;
25091;SDS011;13082;52.374;4.946;2023-10-08T14:21:20;8.43;;;3.80;;
25091;SDS011;13082;52.374;4.946;2023-10-08T14:23:55;5.27;;;3.30;;
25091;SDS011;13082;52.374;4.946;2023-10-08T14:26:28;4.93;;;3.77;;
25091;SDS011;13082;52.374;4.946;2023-10-08T14:29:00;3.77;;;3.37;;
25091;SDS011;13082;52.374;4.946;2023-10-08T14:31:32;4.27;;;3.33;;
25091;SDS011;13082;52.374;4.946;2023-10-08T14:33:59;4.50;;;3.73;;
25091;SDS011;13082;52.374;4.946;2023-10-08T14:36:31;4.23;;;3.47;;
25091;SDS011;13082;52.374;4.946;2023-10-08T14:39:16;5.43;;;3.60;;
25091;SDS011;13082;52.374;4.946;2023-10-08T14:42:01;6.07;;;3.73;;
25091;SDS011;13082;52.374;4.946;2023-10-08T14:44:45;5.43;;;3.93;;
25091;SDS011;13082;52.374;4.946;2023-10-08T14:47:11;10.97;;;3.43;;
25091;SDS011;13082;52.374;4.946;2023-10-08T14:49:37;4.80;;;3.90;;
25091;SDS011;13082;52.374;4.946;2023-10-08T14:52:03;4.63;;;3.43;;
25091;SDS011;13082;52.374;4.946;2023-10-08T14:54:30;8.43;;;4.27;;
25091;SDS011;13082;52.374;4.946;2023-10-08T14:56:58;7.10;;;3.50;;
25091;SDS011;13082;52.374;4.946;2023-10-08T14:59:24;5.43;;;3.43;;
25091;SDS011;13082;52.374;4.946;2023-10-08T15:01:53;5.17;;;4.20;;
25091;SDS011;13082;52.374;4.946;2023-10-08T15:04:20;8.47;;;3.60;;
25091;SDS011;13082;52.374;4.946;2023-10-08T15:06:46;3.93;;;3.53;;
25091;SDS011;13082;52.374;4.946;2023-10-08T15:09:12;4.37;;;3.77;;
25091;SDS011;13082;52.374;4.946;2023-10-08T15:11:46;4.23;;;3.30;;
25091;SDS011;13082;52.374;4.946;2023-10-08T15:14:12;5.30;;;4.53;;
25091;SDS011;13082;52.374;4.946;2023-10-08T15:16:40;5.37;;;4.43;;
25091;SDS011;13082;52.374;4.946;2023-10-08T15:19:15;4.43;;;3.63;;
25091;SDS011;13082;52.374;4.946;2023-10-08T15:21:40;8.47;;;4.17;;
25091;SDS011;13082;52.374;4.946;2023-10-08T15:24:06;8.80;;;3.83;;
25091;SDS011;13082;52.374;4.946;2023-10-08T15:26:37;5.63;;;4.00;;
25091;SDS011;13082;52.374;4.946;2023-10-08T15:29:04;4.20;;;3.50;;
25091;SDS011;13082;52.374;4.946;2023-10-08T15:31:30;7.00;;;3.90;;